<?xml version="1.0" encoding="UTF-8" standalone="no" ?>
<gpx xmlns="http://www.topografix.com/GPX/1/1" xmlns:xsi="http://www.w3.org/2001/XMLSchema-instance" xsi:schemaLocation="http://www.topografix.com/GPX/1/1 http://www.topografix.com/GPX/1/1/gpx.xsd" version="1.1" creator="VisuGPX - https://www.visugpx.com">
  <metadata>
    <name>randonnée  patrimoine à Guehenno  </name>
  </metadata>
  <wpt lat="47.89227" lon="-2.64074">
    <ele>113.7</ele>
    <name><![CDATA[Pst 8 statut social douarinoint sur la carte]]></name>
  </wpt>
  <wpt lat="47.89241" lon="-2.63959">
    <ele>113.8</ele>
    <name><![CDATA[Pstat 7 cal et  m ita oint sur la carte]]></name>
  </wpt>
  <wpt lat="47.8931" lon="-2.63907">
    <ele>112.6</ele>
    <name><![CDATA[Psyat 6 lucarne près mairie oint sur la carte]]></name>
  </wpt>
  <wpt lat="47.89242" lon="-2.63958">
    <ele>113.8</ele>
    <name><![CDATA[point 7 calvaire maison ita sur la carte]]></name>
  </wpt>
  <wpt lat="47.89247" lon="-2.63883">
    <ele>113.3</ele>
    <name><![CDATA[Ppoint 5 réemploi chimereoint sur la carte]]></name>
  </wpt>
  <wpt lat="47.89191" lon="-2.63952">
    <ele>113.7</ele>
    <name><![CDATA[stat 3 teligieuxPoint sur la carte]]></name>
  </wpt>
  <wpt lat="47.89153" lon="-2.64053">
    <ele>113</ele>
    <name><![CDATA[stage 2 les ouverturesPoint sur la carte]]></name>
  </wpt>
  <wpt lat="47.89208" lon="-2.64066">
    <ele>113.5</ele>
    <name><![CDATA[st 1 le granit se racontePoint sur la carte]]></name>
  </wpt>
  <wpt lat="47.8915" lon="-2.6411">
    <ele>112.8</ele>
    <name><![CDATA[Parkingguehennooint sur la carte]]></name>
  </wpt>
  <wpt lat="47.89149" lon="-2.64108">
    <ele>112.8</ele>
    <name><![CDATA[parking d778 en face du 34Point sur la carte]]></name>
  </wpt>
  <wpt lat="47.88706" lon="-2.63488">
    <ele>142.2</ele>
    <name><![CDATA[près chapelle st michelPoint sur la carte]]></name>
  </wpt>
  <wpt lat="47.89149" lon="-2.63819">
    <ele>109.7</ele>
    <name><![CDATA[Pchemin conseille piéton pancarteoint sur la carte]]></name>
  </wpt>
  <trk>
    <name><![CDATA[6 mai 2019 14:26:29]]></name>
    <trkseg>
      <trkpt lat="47.8915" lon="-2.6411">
        <ele>152.02</ele>
        <time>2019-05-06T12:26:32.000Z</time>
      </trkpt>
      <trkpt lat="47.89154" lon="-2.64123">
        <ele>155.22</ele>
        <time>2019-05-06T12:27:22.000Z</time>
      </trkpt>
      <trkpt lat="47.89159" lon="-2.64135">
        <ele>154.13</ele>
        <time>2019-05-06T12:27:32.000Z</time>
      </trkpt>
      <trkpt lat="47.89168" lon="-2.64135">
        <ele>157.2</ele>
        <time>2019-05-06T12:28:46.000Z</time>
      </trkpt>
      <trkpt lat="47.8917" lon="-2.64148">
        <ele>155.45</ele>
        <time>2019-05-06T12:28:54.000Z</time>
      </trkpt>
      <trkpt lat="47.89177" lon="-2.64141">
        <ele>155.66</ele>
        <time>2019-05-06T12:30:23.000Z</time>
      </trkpt>
      <trkpt lat="47.89186" lon="-2.64133">
        <ele>153.2</ele>
        <time>2019-05-06T12:30:33.000Z</time>
      </trkpt>
      <trkpt lat="47.89195" lon="-2.64127">
        <ele>151.92</ele>
        <time>2019-05-06T12:30:42.000Z</time>
      </trkpt>
      <trkpt lat="47.892" lon="-2.64115">
        <ele>150</ele>
        <time>2019-05-06T12:30:54.000Z</time>
      </trkpt>
      <trkpt lat="47.89206" lon="-2.64105">
        <ele>152.72</ele>
        <time>2019-05-06T12:31:03.000Z</time>
      </trkpt>
      <trkpt lat="47.8921" lon="-2.64091">
        <ele>154.08</ele>
        <time>2019-05-06T12:31:14.000Z</time>
      </trkpt>
      <trkpt lat="47.89215" lon="-2.6408">
        <ele>156.13</ele>
        <time>2019-05-06T12:31:23.000Z</time>
      </trkpt>
      <trkpt lat="47.8921" lon="-2.64069">
        <ele>152.06</ele>
        <time>2019-05-06T12:31:40.000Z</time>
      </trkpt>
      <trkpt lat="47.89204" lon="-2.64058">
        <ele>159.67</ele>
        <time>2019-05-06T12:33:44.000Z</time>
      </trkpt>
      <trkpt lat="47.89195" lon="-2.64053">
        <ele>160.03</ele>
        <time>2019-05-06T12:33:55.000Z</time>
      </trkpt>
      <trkpt lat="47.89186" lon="-2.6405">
        <ele>158.06</ele>
        <time>2019-05-06T12:34:09.000Z</time>
      </trkpt>
      <trkpt lat="47.89177" lon="-2.64048">
        <ele>158.78</ele>
        <time>2019-05-06T12:34:19.000Z</time>
      </trkpt>
      <trkpt lat="47.89167" lon="-2.64046">
        <ele>157.1</ele>
        <time>2019-05-06T12:34:30.000Z</time>
      </trkpt>
      <trkpt lat="47.89157" lon="-2.64046">
        <ele>156.22</ele>
        <time>2019-05-06T12:34:38.000Z</time>
      </trkpt>
      <trkpt lat="47.89149" lon="-2.64051">
        <ele>159.49</ele>
        <time>2019-05-06T12:40:24.000Z</time>
      </trkpt>
      <trkpt lat="47.8914" lon="-2.64046">
        <ele>160.96</ele>
        <time>2019-05-06T12:40:32.000Z</time>
      </trkpt>
      <trkpt lat="47.8913" lon="-2.64042">
        <ele>162.08</ele>
        <time>2019-05-06T12:40:41.000Z</time>
      </trkpt>
      <trkpt lat="47.89122" lon="-2.64036">
        <ele>162.39</ele>
        <time>2019-05-06T12:40:49.000Z</time>
      </trkpt>
      <trkpt lat="47.89118" lon="-2.64024">
        <ele>158.36</ele>
        <time>2019-05-06T12:41:03.000Z</time>
      </trkpt>
      <trkpt lat="47.89122" lon="-2.64011">
        <ele>154.01</ele>
        <time>2019-05-06T12:41:15.000Z</time>
      </trkpt>
      <trkpt lat="47.89126" lon="-2.63998">
        <ele>154.89</ele>
        <time>2019-05-06T12:41:24.000Z</time>
      </trkpt>
      <trkpt lat="47.8913" lon="-2.63985">
        <ele>156.84</ele>
        <time>2019-05-06T12:41:33.000Z</time>
      </trkpt>
      <trkpt lat="47.89138" lon="-2.63977">
        <ele>159.29</ele>
        <time>2019-05-06T12:41:42.000Z</time>
      </trkpt>
      <trkpt lat="47.89146" lon="-2.63975">
        <ele>157.6</ele>
        <time>2019-05-06T12:41:52.000Z</time>
      </trkpt>
      <trkpt lat="47.89156" lon="-2.6397">
        <ele>159.46</ele>
        <time>2019-05-06T12:42:03.000Z</time>
      </trkpt>
      <trkpt lat="47.89165" lon="-2.63966">
        <ele>156.75</ele>
        <time>2019-05-06T12:42:12.000Z</time>
      </trkpt>
      <trkpt lat="47.89174" lon="-2.63965">
        <ele>156.05</ele>
        <time>2019-05-06T12:42:21.000Z</time>
      </trkpt>
      <trkpt lat="47.89184" lon="-2.63962">
        <ele>156.64</ele>
        <time>2019-05-06T12:42:31.000Z</time>
      </trkpt>
      <trkpt lat="47.89191" lon="-2.63954">
        <ele>159.28</ele>
        <time>2019-05-06T12:42:44.000Z</time>
      </trkpt>
      <trkpt lat="47.89192" lon="-2.63941">
        <ele>160.05</ele>
        <time>2019-05-06T12:43:56.000Z</time>
      </trkpt>
      <trkpt lat="47.89193" lon="-2.63926">
        <ele>156.94</ele>
        <time>2019-05-06T12:44:08.000Z</time>
      </trkpt>
      <trkpt lat="47.89193" lon="-2.6391">
        <ele>158.59</ele>
        <time>2019-05-06T12:44:22.000Z</time>
      </trkpt>
      <trkpt lat="47.89191" lon="-2.63896">
        <ele>158.28</ele>
        <time>2019-05-06T12:44:30.000Z</time>
      </trkpt>
      <trkpt lat="47.8919" lon="-2.63881">
        <ele>159.95</ele>
        <time>2019-05-06T12:44:37.000Z</time>
      </trkpt>
      <trkpt lat="47.89183" lon="-2.63869">
        <ele>154.88</ele>
        <time>2019-05-06T12:44:47.000Z</time>
      </trkpt>
      <trkpt lat="47.89177" lon="-2.63857">
        <ele>156.3</ele>
        <time>2019-05-06T12:44:55.000Z</time>
      </trkpt>
      <trkpt lat="47.89173" lon="-2.63844">
        <ele>157.22</ele>
        <time>2019-05-06T12:45:01.000Z</time>
      </trkpt>
      <trkpt lat="47.89168" lon="-2.63832">
        <ele>155.73</ele>
        <time>2019-05-06T12:45:10.000Z</time>
      </trkpt>
      <trkpt lat="47.89171" lon="-2.63818">
        <ele>155</ele>
        <time>2019-05-06T12:45:28.000Z</time>
      </trkpt>
      <trkpt lat="47.89178" lon="-2.63808">
        <ele>155.59</ele>
        <time>2019-05-06T12:45:35.000Z</time>
      </trkpt>
      <trkpt lat="47.89187" lon="-2.63804">
        <ele>153.92</ele>
        <time>2019-05-06T12:45:44.000Z</time>
      </trkpt>
      <trkpt lat="47.89196" lon="-2.63802">
        <ele>151.22</ele>
        <time>2019-05-06T12:45:53.000Z</time>
      </trkpt>
      <trkpt lat="47.89205" lon="-2.638">
        <ele>151.09</ele>
        <time>2019-05-06T12:46:00.000Z</time>
      </trkpt>
      <trkpt lat="47.89214" lon="-2.63797">
        <ele>152.27</ele>
        <time>2019-05-06T12:46:11.000Z</time>
      </trkpt>
      <trkpt lat="47.89222" lon="-2.6379">
        <ele>157.48</ele>
        <time>2019-05-06T12:46:21.000Z</time>
      </trkpt>
      <trkpt lat="47.89232" lon="-2.63787">
        <ele>158.33</ele>
        <time>2019-05-06T12:46:26.000Z</time>
      </trkpt>
      <trkpt lat="47.8924" lon="-2.6378">
        <ele>156.39</ele>
        <time>2019-05-06T12:46:32.000Z</time>
      </trkpt>
      <trkpt lat="47.8924" lon="-2.63795">
        <ele>155.01</ele>
        <time>2019-05-06T12:47:10.000Z</time>
      </trkpt>
      <trkpt lat="47.89231" lon="-2.638">
        <ele>151.66</ele>
        <time>2019-05-06T12:49:24.000Z</time>
      </trkpt>
      <trkpt lat="47.89235" lon="-2.63788">
        <ele>153.12</ele>
        <time>2019-05-06T12:49:43.000Z</time>
      </trkpt>
      <trkpt lat="47.89242" lon="-2.63778">
        <ele>153.26</ele>
        <time>2019-05-06T12:49:52.000Z</time>
      </trkpt>
      <trkpt lat="47.89243" lon="-2.63764">
        <ele>154.78</ele>
        <time>2019-05-06T12:50:01.000Z</time>
      </trkpt>
      <trkpt lat="47.89245" lon="-2.63777">
        <ele>155.72</ele>
        <time>2019-05-06T12:51:22.000Z</time>
      </trkpt>
      <trkpt lat="47.89241" lon="-2.63789">
        <ele>154.13</ele>
        <time>2019-05-06T12:51:45.000Z</time>
      </trkpt>
      <trkpt lat="47.89239" lon="-2.63803">
        <ele>156.14</ele>
        <time>2019-05-06T12:51:55.000Z</time>
      </trkpt>
      <trkpt lat="47.89246" lon="-2.63811">
        <ele>158.46</ele>
        <time>2019-05-06T12:52:15.000Z</time>
      </trkpt>
      <trkpt lat="47.89246" lon="-2.63825">
        <ele>159.58</ele>
        <time>2019-05-06T12:53:10.000Z</time>
      </trkpt>
      <trkpt lat="47.89248" lon="-2.63839">
        <ele>157.54</ele>
        <time>2019-05-06T12:53:19.000Z</time>
      </trkpt>
      <trkpt lat="47.89249" lon="-2.63853">
        <ele>158.62</ele>
        <time>2019-05-06T12:53:28.000Z</time>
      </trkpt>
      <trkpt lat="47.89252" lon="-2.63866">
        <ele>158.22</ele>
        <time>2019-05-06T12:53:41.000Z</time>
      </trkpt>
      <trkpt lat="47.89248" lon="-2.63879">
        <ele>161.02</ele>
        <time>2019-05-06T12:53:53.000Z</time>
      </trkpt>
      <trkpt lat="47.89246" lon="-2.63892">
        <ele>161.91</ele>
        <time>2019-05-06T12:57:04.000Z</time>
      </trkpt>
      <trkpt lat="47.89245" lon="-2.63906">
        <ele>158.85</ele>
        <time>2019-05-06T12:57:23.000Z</time>
      </trkpt>
      <trkpt lat="47.89245" lon="-2.63921">
        <ele>161.77</ele>
        <time>2019-05-06T12:57:33.000Z</time>
      </trkpt>
      <trkpt lat="47.89245" lon="-2.63935">
        <ele>161.18</ele>
        <time>2019-05-06T12:57:52.000Z</time>
      </trkpt>
      <trkpt lat="47.89241" lon="-2.63946">
        <ele>164.69</ele>
        <time>2019-05-06T12:58:33.000Z</time>
      </trkpt>
      <trkpt lat="47.89243" lon="-2.63933">
        <ele>162.48</ele>
        <time>2019-05-06T13:01:08.000Z</time>
      </trkpt>
      <trkpt lat="47.89243" lon="-2.63919">
        <ele>163.3</ele>
        <time>2019-05-06T13:01:17.000Z</time>
      </trkpt>
      <trkpt lat="47.89246" lon="-2.63904">
        <ele>163.95</ele>
        <time>2019-05-06T13:01:25.000Z</time>
      </trkpt>
      <trkpt lat="47.89248" lon="-2.6389">
        <ele>162.49</ele>
        <time>2019-05-06T13:01:33.000Z</time>
      </trkpt>
      <trkpt lat="47.89251" lon="-2.63878">
        <ele>161.01</ele>
        <time>2019-05-06T13:01:41.000Z</time>
      </trkpt>
      <trkpt lat="47.89259" lon="-2.63871">
        <ele>160.02</ele>
        <time>2019-05-06T13:01:53.000Z</time>
      </trkpt>
      <trkpt lat="47.89267" lon="-2.63877">
        <ele>159.36</ele>
        <time>2019-05-06T13:02:05.000Z</time>
      </trkpt>
      <trkpt lat="47.89276" lon="-2.63884">
        <ele>159.29</ele>
        <time>2019-05-06T13:02:15.000Z</time>
      </trkpt>
      <trkpt lat="47.89282" lon="-2.63894">
        <ele>158.17</ele>
        <time>2019-05-06T13:02:24.000Z</time>
      </trkpt>
      <trkpt lat="47.89291" lon="-2.639">
        <ele>159.17</ele>
        <time>2019-05-06T13:02:32.000Z</time>
      </trkpt>
      <trkpt lat="47.89299" lon="-2.63908">
        <ele>159.03</ele>
        <time>2019-05-06T13:02:40.000Z</time>
      </trkpt>
      <trkpt lat="47.89308" lon="-2.63906">
        <ele>160.1</ele>
        <time>2019-05-06T13:02:50.000Z</time>
      </trkpt>
      <trkpt lat="47.89303" lon="-2.63918">
        <ele>162.79</ele>
        <time>2019-05-06T13:05:35.000Z</time>
      </trkpt>
      <trkpt lat="47.893" lon="-2.63932">
        <ele>161.95</ele>
        <time>2019-05-06T13:06:00.000Z</time>
      </trkpt>
      <trkpt lat="47.89295" lon="-2.63944">
        <ele>164.97</ele>
        <time>2019-05-06T13:06:09.000Z</time>
      </trkpt>
      <trkpt lat="47.8929" lon="-2.63958">
        <ele>166.68</ele>
        <time>2019-05-06T13:06:55.000Z</time>
      </trkpt>
      <trkpt lat="47.8928" lon="-2.63961">
        <ele>169.29</ele>
        <time>2019-05-06T13:07:27.000Z</time>
      </trkpt>
      <trkpt lat="47.89271" lon="-2.63957">
        <ele>171.43</ele>
        <time>2019-05-06T13:07:34.000Z</time>
      </trkpt>
      <trkpt lat="47.89261" lon="-2.63958">
        <ele>165.51</ele>
        <time>2019-05-06T13:07:42.000Z</time>
      </trkpt>
      <trkpt lat="47.89251" lon="-2.63957">
        <ele>169.09</ele>
        <time>2019-05-06T13:07:51.000Z</time>
      </trkpt>
      <trkpt lat="47.89243" lon="-2.63956">
        <ele>171.79</ele>
        <time>2019-05-06T13:08:01.000Z</time>
      </trkpt>
      <trkpt lat="47.89236" lon="-2.63966">
        <ele>161.7</ele>
        <time>2019-05-06T13:09:20.000Z</time>
      </trkpt>
      <trkpt lat="47.89236" lon="-2.6398">
        <ele>162.74</ele>
        <time>2019-05-06T13:09:27.000Z</time>
      </trkpt>
      <trkpt lat="47.89236" lon="-2.63994">
        <ele>161.12</ele>
        <time>2019-05-06T13:09:35.000Z</time>
      </trkpt>
      <trkpt lat="47.89236" lon="-2.64008">
        <ele>164.03</ele>
        <time>2019-05-06T13:09:43.000Z</time>
      </trkpt>
      <trkpt lat="47.89234" lon="-2.64022">
        <ele>167.2</ele>
        <time>2019-05-06T13:09:49.000Z</time>
      </trkpt>
      <trkpt lat="47.89236" lon="-2.64036">
        <ele>168.49</ele>
        <time>2019-05-06T13:09:57.000Z</time>
      </trkpt>
      <trkpt lat="47.89235" lon="-2.64051">
        <ele>163.75</ele>
        <time>2019-05-06T13:10:06.000Z</time>
      </trkpt>
      <trkpt lat="47.89231" lon="-2.64063">
        <ele>163.63</ele>
        <time>2019-05-06T13:10:13.000Z</time>
      </trkpt>
      <trkpt lat="47.89228" lon="-2.64076">
        <ele>162.18</ele>
        <time>2019-05-06T13:10:22.000Z</time>
      </trkpt>
    </trkseg>
  </trk>
  <trk>
    <name><![CDATA[6 mai 2019 15:31:36]]></name>
    <trkseg>
      <trkpt lat="47.89148" lon="-2.63818">
        <ele>176.3</ele>
        <time>2019-05-06T13:31:39.000Z</time>
      </trkpt>
      <trkpt lat="47.89139" lon="-2.63821">
        <ele>168.08</ele>
        <time>2019-05-06T13:32:32.000Z</time>
      </trkpt>
      <trkpt lat="47.8913" lon="-2.63822">
        <ele>166.23</ele>
        <time>2019-05-06T13:32:40.000Z</time>
      </trkpt>
      <trkpt lat="47.8912" lon="-2.63823">
        <ele>164.77</ele>
        <time>2019-05-06T13:32:48.000Z</time>
      </trkpt>
      <trkpt lat="47.8911" lon="-2.63823">
        <ele>163.83</ele>
        <time>2019-05-06T13:32:56.000Z</time>
      </trkpt>
      <trkpt lat="47.89101" lon="-2.6382">
        <ele>163.31</ele>
        <time>2019-05-06T13:33:03.000Z</time>
      </trkpt>
      <trkpt lat="47.89092" lon="-2.63821">
        <ele>162.91</ele>
        <time>2019-05-06T13:33:12.000Z</time>
      </trkpt>
      <trkpt lat="47.89082" lon="-2.6382">
        <ele>159.73</ele>
        <time>2019-05-06T13:33:20.000Z</time>
      </trkpt>
      <trkpt lat="47.89073" lon="-2.63821">
        <ele>158.4</ele>
        <time>2019-05-06T13:33:31.000Z</time>
      </trkpt>
      <trkpt lat="47.89063" lon="-2.6382">
        <ele>154.23</ele>
        <time>2019-05-06T13:33:40.000Z</time>
      </trkpt>
      <trkpt lat="47.89053" lon="-2.63822">
        <ele>156.1</ele>
        <time>2019-05-06T13:33:48.000Z</time>
      </trkpt>
      <trkpt lat="47.89043" lon="-2.63825">
        <ele>154.45</ele>
        <time>2019-05-06T13:33:57.000Z</time>
      </trkpt>
      <trkpt lat="47.89035" lon="-2.63828">
        <ele>155.81</ele>
        <time>2019-05-06T13:34:05.000Z</time>
      </trkpt>
      <trkpt lat="47.89025" lon="-2.6383">
        <ele>152.93</ele>
        <time>2019-05-06T13:34:13.000Z</time>
      </trkpt>
      <trkpt lat="47.89016" lon="-2.63834">
        <ele>157.03</ele>
        <time>2019-05-06T13:34:21.000Z</time>
      </trkpt>
      <trkpt lat="47.89006" lon="-2.63837">
        <ele>156.81</ele>
        <time>2019-05-06T13:34:30.000Z</time>
      </trkpt>
      <trkpt lat="47.88997" lon="-2.63839">
        <ele>154.52</ele>
        <time>2019-05-06T13:34:39.000Z</time>
      </trkpt>
      <trkpt lat="47.88987" lon="-2.6384">
        <ele>156.03</ele>
        <time>2019-05-06T13:34:47.000Z</time>
      </trkpt>
      <trkpt lat="47.88978" lon="-2.63842">
        <ele>158.68</ele>
        <time>2019-05-06T13:34:54.000Z</time>
      </trkpt>
      <trkpt lat="47.88969" lon="-2.63845">
        <ele>159.31</ele>
        <time>2019-05-06T13:35:03.000Z</time>
      </trkpt>
      <trkpt lat="47.8896" lon="-2.63848">
        <ele>158.54</ele>
        <time>2019-05-06T13:35:12.000Z</time>
      </trkpt>
      <trkpt lat="47.88952" lon="-2.63857">
        <ele>157.59</ele>
        <time>2019-05-06T13:35:21.000Z</time>
      </trkpt>
      <trkpt lat="47.88943" lon="-2.63863">
        <ele>156.77</ele>
        <time>2019-05-06T13:35:31.000Z</time>
      </trkpt>
      <trkpt lat="47.88933" lon="-2.63865">
        <ele>160.84</ele>
        <time>2019-05-06T13:35:53.000Z</time>
      </trkpt>
      <trkpt lat="47.88924" lon="-2.63869">
        <ele>153.76</ele>
        <time>2019-05-06T13:36:34.000Z</time>
      </trkpt>
      <trkpt lat="47.88915" lon="-2.63867">
        <ele>147.84</ele>
        <time>2019-05-06T13:36:45.000Z</time>
      </trkpt>
      <trkpt lat="47.88907" lon="-2.6387">
        <ele>148.79</ele>
        <time>2019-05-06T13:36:53.000Z</time>
      </trkpt>
      <trkpt lat="47.88898" lon="-2.63876">
        <ele>149.69</ele>
        <time>2019-05-06T13:37:00.000Z</time>
      </trkpt>
      <trkpt lat="47.88889" lon="-2.63879">
        <ele>162.93</ele>
        <time>2019-05-06T13:37:06.000Z</time>
      </trkpt>
      <trkpt lat="47.88879" lon="-2.63882">
        <ele>159.24</ele>
        <time>2019-05-06T13:37:15.000Z</time>
      </trkpt>
      <trkpt lat="47.8887" lon="-2.63884">
        <ele>160.56</ele>
        <time>2019-05-06T13:37:23.000Z</time>
      </trkpt>
      <trkpt lat="47.88861" lon="-2.63884">
        <ele>157.71</ele>
        <time>2019-05-06T13:37:31.000Z</time>
      </trkpt>
      <trkpt lat="47.88852" lon="-2.63883">
        <ele>160.13</ele>
        <time>2019-05-06T13:37:38.000Z</time>
      </trkpt>
      <trkpt lat="47.88841" lon="-2.63884">
        <ele>162.91</ele>
        <time>2019-05-06T13:37:45.000Z</time>
      </trkpt>
      <trkpt lat="47.88832" lon="-2.6388">
        <ele>165.96</ele>
        <time>2019-05-06T13:37:54.000Z</time>
      </trkpt>
      <trkpt lat="47.88829" lon="-2.63866">
        <ele>167.87</ele>
        <time>2019-05-06T13:38:03.000Z</time>
      </trkpt>
      <trkpt lat="47.88826" lon="-2.63852">
        <ele>171.09</ele>
        <time>2019-05-06T13:38:12.000Z</time>
      </trkpt>
      <trkpt lat="47.88821" lon="-2.6384">
        <ele>174.39</ele>
        <time>2019-05-06T13:38:21.000Z</time>
      </trkpt>
      <trkpt lat="47.88819" lon="-2.63826">
        <ele>168.15</ele>
        <time>2019-05-06T13:38:32.000Z</time>
      </trkpt>
      <trkpt lat="47.88817" lon="-2.63812">
        <ele>171.35</ele>
        <time>2019-05-06T13:38:41.000Z</time>
      </trkpt>
      <trkpt lat="47.88815" lon="-2.63798">
        <ele>171.41</ele>
        <time>2019-05-06T13:38:50.000Z</time>
      </trkpt>
      <trkpt lat="47.88814" lon="-2.63783">
        <ele>171.02</ele>
        <time>2019-05-06T13:38:59.000Z</time>
      </trkpt>
      <trkpt lat="47.88813" lon="-2.63769">
        <ele>169.99</ele>
        <time>2019-05-06T13:39:08.000Z</time>
      </trkpt>
      <trkpt lat="47.88808" lon="-2.63756">
        <ele>170.57</ele>
        <time>2019-05-06T13:39:18.000Z</time>
      </trkpt>
      <trkpt lat="47.88801" lon="-2.63747">
        <ele>171.09</ele>
        <time>2019-05-06T13:39:25.000Z</time>
      </trkpt>
      <trkpt lat="47.88793" lon="-2.63737">
        <ele>172.89</ele>
        <time>2019-05-06T13:39:33.000Z</time>
      </trkpt>
      <trkpt lat="47.88788" lon="-2.63726">
        <ele>174.3</ele>
        <time>2019-05-06T13:39:41.000Z</time>
      </trkpt>
      <trkpt lat="47.88783" lon="-2.63713">
        <ele>176.28</ele>
        <time>2019-05-06T13:39:50.000Z</time>
      </trkpt>
      <trkpt lat="47.88778" lon="-2.63702">
        <ele>177.11</ele>
        <time>2019-05-06T13:39:57.000Z</time>
      </trkpt>
      <trkpt lat="47.88772" lon="-2.63691">
        <ele>177.48</ele>
        <time>2019-05-06T13:40:05.000Z</time>
      </trkpt>
      <trkpt lat="47.88767" lon="-2.6368">
        <ele>181.21</ele>
        <time>2019-05-06T13:40:15.000Z</time>
      </trkpt>
      <trkpt lat="47.88761" lon="-2.6367">
        <ele>183.8</ele>
        <time>2019-05-06T13:40:24.000Z</time>
      </trkpt>
      <trkpt lat="47.88755" lon="-2.63659">
        <ele>182.56</ele>
        <time>2019-05-06T13:40:33.000Z</time>
      </trkpt>
      <trkpt lat="47.88751" lon="-2.63646">
        <ele>180.72</ele>
        <time>2019-05-06T13:40:46.000Z</time>
      </trkpt>
      <trkpt lat="47.88746" lon="-2.63634">
        <ele>182.85</ele>
        <time>2019-05-06T13:40:57.000Z</time>
      </trkpt>
      <trkpt lat="47.88742" lon="-2.6362">
        <ele>183.75</ele>
        <time>2019-05-06T13:41:06.000Z</time>
      </trkpt>
      <trkpt lat="47.88737" lon="-2.63608">
        <ele>184.93</ele>
        <time>2019-05-06T13:41:15.000Z</time>
      </trkpt>
      <trkpt lat="47.88733" lon="-2.63595">
        <ele>186</ele>
        <time>2019-05-06T13:41:24.000Z</time>
      </trkpt>
      <trkpt lat="47.88728" lon="-2.63583">
        <ele>186.3</ele>
        <time>2019-05-06T13:41:33.000Z</time>
      </trkpt>
      <trkpt lat="47.88723" lon="-2.63571">
        <ele>188.83</ele>
        <time>2019-05-06T13:41:43.000Z</time>
      </trkpt>
      <trkpt lat="47.88718" lon="-2.63558">
        <ele>190.57</ele>
        <time>2019-05-06T13:41:53.000Z</time>
      </trkpt>
      <trkpt lat="47.88716" lon="-2.63544">
        <ele>190.65</ele>
        <time>2019-05-06T13:42:03.000Z</time>
      </trkpt>
      <trkpt lat="47.88722" lon="-2.63533">
        <ele>189.44</ele>
        <time>2019-05-06T13:42:14.000Z</time>
      </trkpt>
      <trkpt lat="47.88728" lon="-2.63521">
        <ele>189.02</ele>
        <time>2019-05-06T13:42:24.000Z</time>
      </trkpt>
      <trkpt lat="47.88726" lon="-2.63507">
        <ele>191.51</ele>
        <time>2019-05-06T13:42:37.000Z</time>
      </trkpt>
      <trkpt lat="47.8872" lon="-2.63496">
        <ele>193.52</ele>
        <time>2019-05-06T13:42:47.000Z</time>
      </trkpt>
      <trkpt lat="47.88711" lon="-2.63489">
        <ele>192.01</ele>
        <time>2019-05-06T13:43:00.000Z</time>
      </trkpt>
      <trkpt lat="47.88719" lon="-2.63497">
        <ele>195.99</ele>
        <time>2019-05-06T13:45:43.000Z</time>
      </trkpt>
      <trkpt lat="47.88728" lon="-2.63503">
        <ele>194.98</ele>
        <time>2019-05-06T13:45:53.000Z</time>
      </trkpt>
      <trkpt lat="47.88729" lon="-2.63518">
        <ele>195.16</ele>
        <time>2019-05-06T13:46:03.000Z</time>
      </trkpt>
      <trkpt lat="47.88724" lon="-2.63531">
        <ele>195.07</ele>
        <time>2019-05-06T13:46:10.000Z</time>
      </trkpt>
      <trkpt lat="47.88717" lon="-2.6354">
        <ele>194.93</ele>
        <time>2019-05-06T13:46:20.000Z</time>
      </trkpt>
      <trkpt lat="47.88708" lon="-2.63547">
        <ele>192.53</ele>
        <time>2019-05-06T13:46:31.000Z</time>
      </trkpt>
      <trkpt lat="47.88699" lon="-2.63545">
        <ele>193.52</ele>
        <time>2019-05-06T13:46:39.000Z</time>
      </trkpt>
      <trkpt lat="47.8869" lon="-2.63548">
        <ele>195.83</ele>
        <time>2019-05-06T13:46:48.000Z</time>
      </trkpt>
      <trkpt lat="47.88681" lon="-2.63553">
        <ele>195.4</ele>
        <time>2019-05-06T13:46:57.000Z</time>
      </trkpt>
      <trkpt lat="47.88672" lon="-2.63558">
        <ele>191.92</ele>
        <time>2019-05-06T13:47:06.000Z</time>
      </trkpt>
      <trkpt lat="47.88663" lon="-2.63562">
        <ele>190.19</ele>
        <time>2019-05-06T13:47:14.000Z</time>
      </trkpt>
      <trkpt lat="47.88654" lon="-2.63565">
        <ele>190.83</ele>
        <time>2019-05-06T13:47:22.000Z</time>
      </trkpt>
      <trkpt lat="47.88644" lon="-2.63566">
        <ele>192.04</ele>
        <time>2019-05-06T13:47:34.000Z</time>
      </trkpt>
      <trkpt lat="47.8864" lon="-2.63579">
        <ele>190.29</ele>
        <time>2019-05-06T13:47:46.000Z</time>
      </trkpt>
      <trkpt lat="47.88641" lon="-2.63593">
        <ele>190.74</ele>
        <time>2019-05-06T13:47:55.000Z</time>
      </trkpt>
      <trkpt lat="47.88641" lon="-2.63608">
        <ele>193.77</ele>
        <time>2019-05-06T13:48:04.000Z</time>
      </trkpt>
      <trkpt lat="47.88641" lon="-2.63622">
        <ele>191.84</ele>
        <time>2019-05-06T13:48:11.000Z</time>
      </trkpt>
      <trkpt lat="47.88641" lon="-2.63635">
        <ele>190.53</ele>
        <time>2019-05-06T13:48:19.000Z</time>
      </trkpt>
      <trkpt lat="47.88641" lon="-2.63649">
        <ele>188.39</ele>
        <time>2019-05-06T13:48:30.000Z</time>
      </trkpt>
      <trkpt lat="47.8864" lon="-2.63663">
        <ele>187.74</ele>
        <time>2019-05-06T13:48:37.000Z</time>
      </trkpt>
      <trkpt lat="47.88644" lon="-2.63676">
        <ele>187.28</ele>
        <time>2019-05-06T13:48:48.000Z</time>
      </trkpt>
      <trkpt lat="47.88646" lon="-2.6369">
        <ele>186.28</ele>
        <time>2019-05-06T13:48:57.000Z</time>
      </trkpt>
      <trkpt lat="47.88649" lon="-2.63703">
        <ele>185.36</ele>
        <time>2019-05-06T13:49:04.000Z</time>
      </trkpt>
      <trkpt lat="47.88652" lon="-2.63718">
        <ele>185.82</ele>
        <time>2019-05-06T13:49:13.000Z</time>
      </trkpt>
      <trkpt lat="47.88655" lon="-2.63731">
        <ele>181.44</ele>
        <time>2019-05-06T13:49:21.000Z</time>
      </trkpt>
      <trkpt lat="47.88655" lon="-2.63745">
        <ele>178.79</ele>
        <time>2019-05-06T13:49:28.000Z</time>
      </trkpt>
      <trkpt lat="47.88652" lon="-2.63758">
        <ele>179.53</ele>
        <time>2019-05-06T13:49:37.000Z</time>
      </trkpt>
      <trkpt lat="47.88647" lon="-2.63771">
        <ele>181.27</ele>
        <time>2019-05-06T13:49:43.000Z</time>
      </trkpt>
      <trkpt lat="47.8864" lon="-2.63782">
        <ele>181.48</ele>
        <time>2019-05-06T13:49:50.000Z</time>
      </trkpt>
      <trkpt lat="47.88632" lon="-2.63792">
        <ele>180.34</ele>
        <time>2019-05-06T13:49:58.000Z</time>
      </trkpt>
      <trkpt lat="47.88624" lon="-2.63799">
        <ele>180.85</ele>
        <time>2019-05-06T13:50:08.000Z</time>
      </trkpt>
      <trkpt lat="47.88616" lon="-2.63807">
        <ele>181.14</ele>
        <time>2019-05-06T13:50:16.000Z</time>
      </trkpt>
      <trkpt lat="47.88609" lon="-2.63815">
        <ele>179.27</ele>
        <time>2019-05-06T13:50:25.000Z</time>
      </trkpt>
      <trkpt lat="47.88601" lon="-2.63824">
        <ele>179.62</ele>
        <time>2019-05-06T13:50:31.000Z</time>
      </trkpt>
      <trkpt lat="47.88594" lon="-2.63835">
        <ele>179.85</ele>
        <time>2019-05-06T13:50:39.000Z</time>
      </trkpt>
      <trkpt lat="47.88588" lon="-2.63847">
        <ele>180.13</ele>
        <time>2019-05-06T13:50:47.000Z</time>
      </trkpt>
      <trkpt lat="47.88582" lon="-2.63859">
        <ele>182.22</ele>
        <time>2019-05-06T13:50:54.000Z</time>
      </trkpt>
      <trkpt lat="47.88576" lon="-2.63869">
        <ele>176.64</ele>
        <time>2019-05-06T13:51:24.000Z</time>
      </trkpt>
      <trkpt lat="47.88574" lon="-2.63883">
        <ele>179.78</ele>
        <time>2019-05-06T13:51:30.000Z</time>
      </trkpt>
      <trkpt lat="47.8857" lon="-2.63895">
        <ele>181.87</ele>
        <time>2019-05-06T13:51:36.000Z</time>
      </trkpt>
      <trkpt lat="47.8857" lon="-2.63909">
        <ele>175.71</ele>
        <time>2019-05-06T13:51:47.000Z</time>
      </trkpt>
      <trkpt lat="47.8857" lon="-2.63923">
        <ele>169.09</ele>
        <time>2019-05-06T13:51:58.000Z</time>
      </trkpt>
      <trkpt lat="47.88569" lon="-2.63937">
        <ele>171.26</ele>
        <time>2019-05-06T13:52:05.000Z</time>
      </trkpt>
      <trkpt lat="47.88567" lon="-2.63951">
        <ele>172.82</ele>
        <time>2019-05-06T13:52:11.000Z</time>
      </trkpt>
      <trkpt lat="47.88567" lon="-2.63967">
        <ele>174.74</ele>
        <time>2019-05-06T13:52:19.000Z</time>
      </trkpt>
      <trkpt lat="47.88567" lon="-2.63982">
        <ele>172.34</ele>
        <time>2019-05-06T13:52:27.000Z</time>
      </trkpt>
      <trkpt lat="47.88567" lon="-2.63997">
        <ele>173.83</ele>
        <time>2019-05-06T13:52:35.000Z</time>
      </trkpt>
      <trkpt lat="47.88565" lon="-2.64012">
        <ele>173.26</ele>
        <time>2019-05-06T13:52:42.000Z</time>
      </trkpt>
      <trkpt lat="47.88564" lon="-2.64025">
        <ele>171.04</ele>
        <time>2019-05-06T13:52:49.000Z</time>
      </trkpt>
      <trkpt lat="47.8856" lon="-2.64039">
        <ele>170.22</ele>
        <time>2019-05-06T13:52:58.000Z</time>
      </trkpt>
      <trkpt lat="47.88563" lon="-2.64052">
        <ele>169.95</ele>
        <time>2019-05-06T13:53:07.000Z</time>
      </trkpt>
      <trkpt lat="47.88573" lon="-2.64053">
        <ele>168.82</ele>
        <time>2019-05-06T13:53:16.000Z</time>
      </trkpt>
      <trkpt lat="47.88583" lon="-2.64052">
        <ele>171.6</ele>
        <time>2019-05-06T13:53:36.000Z</time>
      </trkpt>
      <trkpt lat="47.88593" lon="-2.64053">
        <ele>172.35</ele>
        <time>2019-05-06T13:53:44.000Z</time>
      </trkpt>
      <trkpt lat="47.88603" lon="-2.64053">
        <ele>171.93</ele>
        <time>2019-05-06T13:53:52.000Z</time>
      </trkpt>
      <trkpt lat="47.88612" lon="-2.64052">
        <ele>170.24</ele>
        <time>2019-05-06T13:53:58.000Z</time>
      </trkpt>
      <trkpt lat="47.88622" lon="-2.64053">
        <ele>165.6</ele>
        <time>2019-05-06T13:54:08.000Z</time>
      </trkpt>
      <trkpt lat="47.88632" lon="-2.64053">
        <ele>164.94</ele>
        <time>2019-05-06T13:54:19.000Z</time>
      </trkpt>
      <trkpt lat="47.88641" lon="-2.64051">
        <ele>161.85</ele>
        <time>2019-05-06T13:54:27.000Z</time>
      </trkpt>
      <trkpt lat="47.88651" lon="-2.64051">
        <ele>162.35</ele>
        <time>2019-05-06T13:54:34.000Z</time>
      </trkpt>
      <trkpt lat="47.8866" lon="-2.64051">
        <ele>161.33</ele>
        <time>2019-05-06T13:54:41.000Z</time>
      </trkpt>
      <trkpt lat="47.88669" lon="-2.64048">
        <ele>164.25</ele>
        <time>2019-05-06T13:54:51.000Z</time>
      </trkpt>
      <trkpt lat="47.88679" lon="-2.64051">
        <ele>163.77</ele>
        <time>2019-05-06T13:55:00.000Z</time>
      </trkpt>
      <trkpt lat="47.88688" lon="-2.64052">
        <ele>165.33</ele>
        <time>2019-05-06T13:55:08.000Z</time>
      </trkpt>
      <trkpt lat="47.88699" lon="-2.64054">
        <ele>168.14</ele>
        <time>2019-05-06T13:55:20.000Z</time>
      </trkpt>
      <trkpt lat="47.88709" lon="-2.64056">
        <ele>163.34</ele>
        <time>2019-05-06T13:55:27.000Z</time>
      </trkpt>
      <trkpt lat="47.88719" lon="-2.64057">
        <ele>161.67</ele>
        <time>2019-05-06T13:55:34.000Z</time>
      </trkpt>
      <trkpt lat="47.88729" lon="-2.64058">
        <ele>159.8</ele>
        <time>2019-05-06T13:55:42.000Z</time>
      </trkpt>
      <trkpt lat="47.88738" lon="-2.64058">
        <ele>159.01</ele>
        <time>2019-05-06T13:55:49.000Z</time>
      </trkpt>
      <trkpt lat="47.88747" lon="-2.64059">
        <ele>157.55</ele>
        <time>2019-05-06T13:55:58.000Z</time>
      </trkpt>
      <trkpt lat="47.88756" lon="-2.64061">
        <ele>162.3</ele>
        <time>2019-05-06T13:56:04.000Z</time>
      </trkpt>
      <trkpt lat="47.88765" lon="-2.64063">
        <ele>163.2</ele>
        <time>2019-05-06T13:56:11.000Z</time>
      </trkpt>
      <trkpt lat="47.88775" lon="-2.64063">
        <ele>165.04</ele>
        <time>2019-05-06T13:56:20.000Z</time>
      </trkpt>
      <trkpt lat="47.88785" lon="-2.64061">
        <ele>162.67</ele>
        <time>2019-05-06T13:56:30.000Z</time>
      </trkpt>
      <trkpt lat="47.88794" lon="-2.6406">
        <ele>159.85</ele>
        <time>2019-05-06T13:56:41.000Z</time>
      </trkpt>
      <trkpt lat="47.88804" lon="-2.6406">
        <ele>158.66</ele>
        <time>2019-05-06T13:56:54.000Z</time>
      </trkpt>
      <trkpt lat="47.88813" lon="-2.64059">
        <ele>160.24</ele>
        <time>2019-05-06T13:57:03.000Z</time>
      </trkpt>
      <trkpt lat="47.88823" lon="-2.64057">
        <ele>161.69</ele>
        <time>2019-05-06T13:57:09.000Z</time>
      </trkpt>
      <trkpt lat="47.88832" lon="-2.64055">
        <ele>160.68</ele>
        <time>2019-05-06T13:57:16.000Z</time>
      </trkpt>
      <trkpt lat="47.88842" lon="-2.64056">
        <ele>160.48</ele>
        <time>2019-05-06T13:57:26.000Z</time>
      </trkpt>
      <trkpt lat="47.88851" lon="-2.64055">
        <ele>160.21</ele>
        <time>2019-05-06T13:57:33.000Z</time>
      </trkpt>
      <trkpt lat="47.88861" lon="-2.64054">
        <ele>159.78</ele>
        <time>2019-05-06T13:57:38.000Z</time>
      </trkpt>
      <trkpt lat="47.8887" lon="-2.64052">
        <ele>158.17</ele>
        <time>2019-05-06T13:57:45.000Z</time>
      </trkpt>
      <trkpt lat="47.88879" lon="-2.64051">
        <ele>155.31</ele>
        <time>2019-05-06T13:57:56.000Z</time>
      </trkpt>
      <trkpt lat="47.88889" lon="-2.64048">
        <ele>155.68</ele>
        <time>2019-05-06T13:58:08.000Z</time>
      </trkpt>
      <trkpt lat="47.88899" lon="-2.64048">
        <ele>154.88</ele>
        <time>2019-05-06T13:58:17.000Z</time>
      </trkpt>
      <trkpt lat="47.88908" lon="-2.64049">
        <ele>155.45</ele>
        <time>2019-05-06T13:58:25.000Z</time>
      </trkpt>
      <trkpt lat="47.88919" lon="-2.6405">
        <ele>155.26</ele>
        <time>2019-05-06T13:58:32.000Z</time>
      </trkpt>
      <trkpt lat="47.88928" lon="-2.6405">
        <ele>161.58</ele>
        <time>2019-05-06T13:58:38.000Z</time>
      </trkpt>
      <trkpt lat="47.88938" lon="-2.64051">
        <ele>156.81</ele>
        <time>2019-05-06T13:58:53.000Z</time>
      </trkpt>
      <trkpt lat="47.88947" lon="-2.64051">
        <ele>156.37</ele>
        <time>2019-05-06T13:59:02.000Z</time>
      </trkpt>
      <trkpt lat="47.88957" lon="-2.64048">
        <ele>155.99</ele>
        <time>2019-05-06T13:59:14.000Z</time>
      </trkpt>
      <trkpt lat="47.88966" lon="-2.64047">
        <ele>158.45</ele>
        <time>2019-05-06T13:59:20.000Z</time>
      </trkpt>
      <trkpt lat="47.88975" lon="-2.64046">
        <ele>157.62</ele>
        <time>2019-05-06T13:59:26.000Z</time>
      </trkpt>
      <trkpt lat="47.88985" lon="-2.64044">
        <ele>160.32</ele>
        <time>2019-05-06T13:59:31.000Z</time>
      </trkpt>
      <trkpt lat="47.88994" lon="-2.6404">
        <ele>160.51</ele>
        <time>2019-05-06T13:59:37.000Z</time>
      </trkpt>
      <trkpt lat="47.89005" lon="-2.64038">
        <ele>160.86</ele>
        <time>2019-05-06T13:59:44.000Z</time>
      </trkpt>
      <trkpt lat="47.89014" lon="-2.64034">
        <ele>159.73</ele>
        <time>2019-05-06T13:59:51.000Z</time>
      </trkpt>
      <trkpt lat="47.89023" lon="-2.6403">
        <ele>157.88</ele>
        <time>2019-05-06T13:59:59.000Z</time>
      </trkpt>
      <trkpt lat="47.89031" lon="-2.64025">
        <ele>156.64</ele>
        <time>2019-05-06T14:00:09.000Z</time>
      </trkpt>
      <trkpt lat="47.8904" lon="-2.6402">
        <ele>157.15</ele>
        <time>2019-05-06T14:00:20.000Z</time>
      </trkpt>
      <trkpt lat="47.8905" lon="-2.64015">
        <ele>156.43</ele>
        <time>2019-05-06T14:00:27.000Z</time>
      </trkpt>
      <trkpt lat="47.89058" lon="-2.64009">
        <ele>155.49</ele>
        <time>2019-05-06T14:00:34.000Z</time>
      </trkpt>
      <trkpt lat="47.89067" lon="-2.64005">
        <ele>156.79</ele>
        <time>2019-05-06T14:00:40.000Z</time>
      </trkpt>
      <trkpt lat="47.89077" lon="-2.64001">
        <ele>158.41</ele>
        <time>2019-05-06T14:00:46.000Z</time>
      </trkpt>
      <trkpt lat="47.89085" lon="-2.63997">
        <ele>155.65</ele>
        <time>2019-05-06T14:00:54.000Z</time>
      </trkpt>
      <trkpt lat="47.89094" lon="-2.6399">
        <ele>156.91</ele>
        <time>2019-05-06T14:01:04.000Z</time>
      </trkpt>
      <trkpt lat="47.89103" lon="-2.63988">
        <ele>158.75</ele>
        <time>2019-05-06T14:01:11.000Z</time>
      </trkpt>
      <trkpt lat="47.89113" lon="-2.63986">
        <ele>160.31</ele>
        <time>2019-05-06T14:01:18.000Z</time>
      </trkpt>
      <trkpt lat="47.89123" lon="-2.6399">
        <ele>160.27</ele>
        <time>2019-05-06T14:01:29.000Z</time>
      </trkpt>
      <trkpt lat="47.89125" lon="-2.64003">
        <ele>154.46</ele>
        <time>2019-05-06T14:01:39.000Z</time>
      </trkpt>
      <trkpt lat="47.89124" lon="-2.64018">
        <ele>154.53</ele>
        <time>2019-05-06T14:01:47.000Z</time>
      </trkpt>
      <trkpt lat="47.89123" lon="-2.64032">
        <ele>154.14</ele>
        <time>2019-05-06T14:01:54.000Z</time>
      </trkpt>
      <trkpt lat="47.89122" lon="-2.64046">
        <ele>154.85</ele>
        <time>2019-05-06T14:02:02.000Z</time>
      </trkpt>
      <trkpt lat="47.8912" lon="-2.64059">
        <ele>160.24</ele>
        <time>2019-05-06T14:02:10.000Z</time>
      </trkpt>
      <trkpt lat="47.89118" lon="-2.64072">
        <ele>160.56</ele>
        <time>2019-05-06T14:02:17.000Z</time>
      </trkpt>
      <trkpt lat="47.89116" lon="-2.64087">
        <ele>158.87</ele>
        <time>2019-05-06T14:02:25.000Z</time>
      </trkpt>
      <trkpt lat="47.89117" lon="-2.64101">
        <ele>159.8</ele>
        <time>2019-05-06T14:02:35.000Z</time>
      </trkpt>
      <trkpt lat="47.89115" lon="-2.64116">
        <ele>160.31</ele>
        <time>2019-05-06T14:02:43.000Z</time>
      </trkpt>
      <trkpt lat="47.89113" lon="-2.6413">
        <ele>159.19</ele>
        <time>2019-05-06T14:02:50.000Z</time>
      </trkpt>
      <trkpt lat="47.89111" lon="-2.64144">
        <ele>159.34</ele>
        <time>2019-05-06T14:02:58.000Z</time>
      </trkpt>
      <trkpt lat="47.89109" lon="-2.64159">
        <ele>161.26</ele>
        <time>2019-05-06T14:03:07.000Z</time>
      </trkpt>
      <trkpt lat="47.89108" lon="-2.64174">
        <ele>157.7</ele>
        <time>2019-05-06T14:03:17.000Z</time>
      </trkpt>
      <trkpt lat="47.89114" lon="-2.64185">
        <ele>157.17</ele>
        <time>2019-05-06T14:03:25.000Z</time>
      </trkpt>
      <trkpt lat="47.89121" lon="-2.64176">
        <ele>155.7</ele>
        <time>2019-05-06T14:03:33.000Z</time>
      </trkpt>
      <trkpt lat="47.8913" lon="-2.64169">
        <ele>158.94</ele>
        <time>2019-05-06T14:03:42.000Z</time>
      </trkpt>
      <trkpt lat="47.89139" lon="-2.64163">
        <ele>159.96</ele>
        <time>2019-05-06T14:03:50.000Z</time>
      </trkpt>
      <trkpt lat="47.89146" lon="-2.64154">
        <ele>159.57</ele>
        <time>2019-05-06T14:04:01.000Z</time>
      </trkpt>
      <trkpt lat="47.89155" lon="-2.64159">
        <ele>158.23</ele>
        <time>2019-05-06T14:04:23.000Z</time>
      </trkpt>
      <trkpt lat="47.8916" lon="-2.64147">
        <ele>162.76</ele>
        <time>2019-05-06T14:05:37.000Z</time>
      </trkpt>
      <trkpt lat="47.89157" lon="-2.64133">
        <ele>160.01</ele>
        <time>2019-05-06T14:05:47.000Z</time>
      </trkpt>
      <trkpt lat="47.89153" lon="-2.6412">
        <ele>159.45</ele>
        <time>2019-05-06T14:05:55.000Z</time>
      </trkpt>
      <trkpt lat="47.89148" lon="-2.64107">
        <ele>159.72</ele>
        <time>2019-05-06T14:06:02.000Z</time>
      </trkpt>
    </trkseg>
  </trk>
</gpx>